Terminal Aerodrome Forecast
Issued by NWS Jackson, KY

Home | Current Version | Previous Version | Text Only | Print | Product List | Glossary On
Versions: 1 2 3 4 5 6 7 8 9 10 11 12 13
456
FTUS43 KJKL 092339
TAFJKL
TAF
KJKL 092339Z 1000/1024 VRB03KT P6SM BKN030
     FM100030 VRB03KT P6SM SCT030
     FM100400 VRB03KT P6SM SCT200=

USA.gov is the U.S. government's official web portal to all federal, state and local government web resources and services.